Portada
METAR-TAF:

METAR-TAF

Aeroports :

Txità, Rússia

latitud: 52-05N, longitud: 113-29E, altitud: 685 m

Observació

L'informe es va fer fa 1 hora i 13 minuts, a les 04:00 UTC
Vent 14 kt del Oest/Sud-Oest
Temperatura 8°C
Humitat 57%
Pressió 1011 hPa
Visibilitat 10 km o més
Núvols disperses a una alçada de 3100 ft, Cumulonimbus.

METAR: UIAA 010400Z 24007MPS 9999 SCT031CB 08/M00 Q1011 R29/290155 NOSIG RMK QFE700/0933

Hora: 14:13 (05:13 UTC)

Pronòstic

L'informe es va fer fa 1 hora i 18 minuts, a les 03:55 UTC
Pronòstic vàlid del 01 a les 03 UTC al 02 a les 03 UTC
Vent 16 kt del Oest amb ràfegues de 29 kt
Visibilitat 10 km o més
Cel ennuvolat a una alçada de 3000 ft, Cumulonimbus.
Temporalment
l' 01 a les 03 UTC al 02 a les 03 UTC
Vent 6 kt del Sud-Oest amb ràfegues de 16 kt
Visibilitat: 3100 m
Cel cobert a una alçada de 1400 ft, Cumulonimbus.
xàfecs de pluja, neu

TAF: UIAA 010355Z 0103/0203 28008G15MPS 9999 BKN030CB TEMPO 0103/0203 22003G08MPS 3100 -SHRASN OVC014CB

Observacions i pronòstics meteorològics de més de 4000 aeroports (METAR i TAF).

Les estacions disponibles són els punts grocs i vermells al mapa.

Posi el ratolí al punt desitjat per veure el nom de l'estació.

Feu clic per veure les observacions i els pronòstics meteorològics.

Per canviar el mapa: feu clic els botons verds amb una creu de color negre per apropar; al botó verd amb un guió per allunyar la imatge; o en les fletxes verdes per a mapes adjacents.


METAR-TAF: